createdAt,value
2022-11-27T00:00:36.715Z,13.200
2022-11-27T00:01:30.824Z,12.600
2022-11-27T00:02:27.003Z,14.600
2022-11-27T00:03:39.138Z,17.200
2022-11-27T00:04:33.447Z,15.950
2022-11-27T00:05:37.341Z,13.050
2022-11-27T00:06:37.481Z,14.600
2022-11-27T00:07:35.564Z,14.750
2022-11-27T00:08:45.369Z,15.850
2022-11-27T00:09:28.816Z,16.600
2022-11-27T00:10:48.524Z,15.000
2022-11-27T00:13:31.585Z,16.500
2022-11-27T00:13:36.666Z,15.150
2022-11-27T00:15:33.085Z,14.550
2022-11-27T00:16:22.399Z,14.850
2022-11-27T00:17:22.794Z,14.300
2022-11-27T00:18:32.332Z,15.100
2022-11-27T00:19:32.201Z,16.450
2022-11-27T00:20:29.694Z,16.500
2022-11-27T00:21:34.249Z,18.000
2022-11-27T00:22:27.044Z,19.900
2022-11-27T00:23:27.315Z,19.750
2022-11-27T00:24:25.172Z,18.950
2022-11-27T00:25:26.636Z,20.600
2022-11-27T00:26:24.206Z,20.500
2022-11-27T00:27:27.847Z,20.000
2022-11-27T00:28:32.108Z,19.000
2022-11-27T00:29:28.434Z,19.450
2022-11-27T00:30:25.366Z,19.500
2022-11-27T00:31:33.225Z,17.700
2022-11-27T00:32:27.562Z,17.450
2022-11-27T00:33:34.765Z,15.600
2022-11-27T00:34:20.405Z,18.200
2022-11-27T00:35:24.877Z,16.300
2022-11-27T00:36:24.576Z,15.900
2022-11-27T00:37:25.575Z,15.300
2022-11-27T00:38:37.389Z,17.200
2022-11-27T00:39:26.485Z,17.800
2022-11-27T00:40:23.717Z,17.850
2022-11-27T00:41:26.231Z,17.600
2022-11-27T00:42:28.635Z,19.800
2022-11-27T00:43:21.735Z,19.500
2022-11-27T00:44:20.990Z,19.250
2022-11-27T00:45:30.172Z,20.300
2022-11-27T00:46:28.758Z,17.700
2022-11-27T00:47:23.007Z,18.100
2022-11-27T00:48:29.881Z,18.600
2022-11-27T00:49:32.610Z,17.400
2022-11-27T00:50:26.083Z,17.550
2022-11-27T00:51:20.919Z,16.200
2022-11-27T00:52:22.322Z,18.200
2022-11-27T00:53:26.826Z,17.450
2022-11-27T00:54:25.478Z,16.000
2022-11-27T00:55:21.774Z,18.650
2022-11-27T00:56:28.904Z,19.700
2022-11-27T00:57:27.307Z,20.450
2022-11-27T00:58:24.809Z,18.250
2022-11-27T00:59:27.733Z,20.600
2022-11-27T01:00:26.370Z,20.450
2022-11-27T01:01:24.085Z,19.200
2022-11-27T01:02:25.851Z,19.000
2022-11-27T01:03:30.456Z,17.400
2022-11-27T01:04:27.989Z,21.000
2022-11-27T01:05:20.546Z,20.600
2022-11-27T01:06:27.989Z,23.100
2022-11-27T01:07:27.371Z,20.150
2022-11-27T01:08:26.862Z,19.600
2022-11-27T01:09:30.795Z,19.600
2022-11-27T01:10:22.514Z,21.900
2022-11-27T01:11:28.962Z,21.550
2022-11-27T01:12:27.076Z,19.450
2022-11-27T01:13:26.098Z,20.700
2022-11-27T01:14:29.762Z,19.200
2022-11-27T01:15:27.019Z,19.550
2022-11-27T01:16:40.769Z,21.700
2022-11-27T01:17:31.023Z,20.150
2022-11-27T01:18:29.535Z,18.700
2022-11-27T01:19:23.599Z,18.850
2022-11-27T01:20:31.629Z,20.000
2022-11-27T01:21:23.097Z,18.850
2022-11-27T01:22:20.777Z,19.400
2022-11-27T01:23:37.326Z,18.050
2022-11-27T01:24:29.285Z,18.300
2022-11-27T01:25:27.307Z,19.450
2022-11-27T01:26:40.347Z,18.750
2022-11-27T01:27:31.423Z,20.400
2022-11-27T01:28:32.206Z,20.650
2022-11-27T01:29:25.683Z,19.600
2022-11-27T01:30:41.595Z,18.600
2022-11-27T01:31:38.549Z,19.500
2022-11-27T01:32:31.005Z,22.300
2022-11-27T01:33:24.537Z,18.900
2022-11-27T01:34:31.640Z,17.300
2022-11-27T01:35:29.275Z,17.600
2022-11-27T01:36:25.950Z,17.200
2022-11-27T01:37:33.407Z,18.100
2022-11-27T01:38:28.574Z,16.500
2022-11-27T01:39:27.114Z,18.600
2022-11-27T01:40:25.289Z,18.300
2022-11-27T01:41:33.348Z,20.100
2022-11-27T01:42:30.761Z,17.600
2022-11-27T01:43:22.954Z,22.350
2022-11-27T01:44:33.653Z,19.550
2022-11-27T01:45:28.897Z,19.700
2022-11-27T01:46:24.848Z,20.900
2022-11-27T01:47:23.557Z,22.100
2022-11-27T01:48:27.542Z,22.000
2022-11-27T01:49:31.731Z,18.850
2022-11-27T01:50:26.280Z,20.800
2022-11-27T01:51:28.514Z,19.050
2022-11-27T01:52:32.395Z,18.500
2022-11-27T01:53:28.291Z,19.050
2022-11-27T01:54:24.052Z,20.900
2022-11-27T01:55:23.989Z,18.100
2022-11-27T01:56:30.706Z,18.300
2022-11-27T01:57:26.133Z,18.850
2022-11-27T01:58:27.940Z,21.700
2022-11-27T01:59:22.267Z,22.900
2022-11-27T02:00:47.415Z,22.200
2022-11-27T02:01:35.350Z,21.700
2022-11-27T02:02:38.684Z,20.400
2022-11-27T02:40:34.252Z,21.000
2022-11-27T02:41:28.271Z,17.200
2022-11-27T02:42:37.558Z,19.600
2022-11-27T02:43:29.421Z,17.700
2022-11-27T02:44:26.159Z,16.550
2022-11-27T02:45:29.441Z,18.500
2022-11-27T03:19:37.191Z,17.550
2022-11-27T03:20:24.115Z,16.200
2022-11-27T03:21:28.793Z,17.500
2022-11-27T03:22:28.239Z,18.250
2022-11-27T03:23:33.045Z,19.800
2022-11-27T03:24:40.652Z,18.700
2022-11-27T03:26:16.868Z,21.200
2022-11-27T03:26:26.061Z,17.850
2022-11-27T03:27:29.026Z,17.200
2022-11-27T03:28:23.170Z,15.600
2022-11-27T03:29:34.238Z,16.350
2022-11-27T03:30:22.406Z,17.600
2022-11-27T03:31:27.619Z,17.000
2022-11-27T03:32:21.041Z,17.250
2022-11-27T03:33:31.373Z,16.400
2022-11-27T03:34:20.602Z,16.800
2022-11-27T03:35:26.699Z,17.400
2022-11-27T03:36:34.824Z,17.200
2022-11-27T03:37:24.055Z,19.400
2022-11-27T03:38:27.518Z,18.450
2022-11-27T03:39:20.481Z,18.400
2022-11-27T03:40:48.076Z,18.850
2022-11-27T03:41:27.933Z,19.500
2022-11-27T03:42:25.312Z,20.950
2022-11-27T03:43:27.613Z,18.400
2022-11-27T03:44:33.041Z,19.100
2022-11-27T03:45:27.211Z,19.600
2022-11-27T03:46:22.973Z,17.900
2022-11-27T03:47:34.392Z,19.850
2022-11-27T03:48:22.234Z,21.500
2022-11-27T03:49:25.712Z,19.700
2022-11-27T03:50:32.689Z,18.500
2022-11-27T03:51:28.702Z,20.700
2022-11-27T03:52:24.915Z,18.850
2022-11-27T03:53:23.175Z,18.800
2022-11-27T03:54:30.048Z,18.350
2022-11-27T03:55:26.778Z,18.700
2022-11-27T03:56:29.741Z,19.100
2022-11-27T03:57:36.448Z,21.500
2022-11-27T03:58:29.950Z,22.100
2022-11-27T03:59:24.664Z,22.150
2022-11-27T04:00:51.927Z,21.000
2022-11-27T04:01:54.457Z,20.150
2022-11-27T04:02:34.325Z,20.700
2022-11-27T04:03:28.228Z,20.900
2022-11-27T04:04:37.937Z,20.850
2022-11-27T04:05:32.619Z,19.200
2022-11-27T04:06:33.032Z,19.700
2022-11-27T04:07:45.481Z,20.700
2022-11-27T04:08:44.290Z,17.700
2022-11-27T04:09:35.844Z,19.700
2022-11-27T04:10:32.675Z,18.100
2022-11-27T04:11:36.405Z,19.700
2022-11-27T04:12:44.892Z,19.750
2022-11-27T04:13:31.427Z,17.000
2022-11-27T04:16:16.375Z,20.400
2022-11-27T04:17:27.026Z,20.400
2022-11-27T04:18:34.296Z,20.000
2022-11-27T04:18:49.589Z,19.900
2022-11-27T04:19:31.449Z,21.500
2022-11-27T04:20:27.008Z,16.900
2022-11-27T04:21:44.122Z,17.300
2022-11-27T04:22:29.767Z,20.900
2022-11-27T04:23:40.526Z,21.200
2022-11-27T04:24:45.564Z,19.700
2022-11-27T04:25:48.100Z,21.550
2022-11-27T04:26:41.382Z,21.350
2022-11-27T04:27:26.799Z,21.200
2022-11-27T04:29:12.961Z,21.150
2022-11-27T04:29:51.699Z,19.950
2022-11-27T04:30:33.891Z,18.400
2022-11-27T04:31:31.892Z,17.400
2022-11-27T04:32:47.528Z,19.500
2022-11-27T04:33:23.764Z,18.800
2022-11-27T04:34:25.131Z,19.050
2022-11-27T04:35:31.353Z,21.100
2022-11-27T04:36:25.712Z,18.950
2022-11-27T04:37:40.265Z,21.250
2022-11-27T04:38:28.216Z,21.700
2022-11-27T04:39:27.573Z,19.200
2022-11-27T04:40:32.530Z,18.300
2022-11-27T04:41:34.403Z,20.500
2022-11-27T04:42:24.805Z,18.500
2022-11-27T04:43:37.387Z,20.100
2022-11-27T04:44:39.566Z,19.950
2022-11-27T04:45:36.910Z,18.500
2022-11-27T04:46:22.510Z,21.800
2022-11-27T04:47:23.542Z,24.200
2022-11-27T04:48:29.922Z,20.150
2022-11-27T04:49:28.432Z,23.200
2022-11-27T04:50:30.921Z,20.900
2022-11-27T04:51:29.685Z,21.950
2022-11-27T04:52:37.905Z,21.600
2022-11-27T04:53:26.831Z,21.000
2022-11-27T04:54:23.927Z,20.200
2022-11-27T04:55:34.246Z,21.200
2022-11-27T04:56:41.396Z,20.500
2022-11-27T04:57:24.345Z,21.900
2022-11-27T04:58:42.791Z,23.600
2022-11-27T04:59:29.102Z,19.500
2022-11-27T05:00:42.456Z,24.000
2022-11-27T05:01:30.197Z,19.500
2022-11-27T05:02:36.393Z,20.650
2022-11-27T05:03:28.047Z,18.800
2022-11-27T05:04:39.613Z,20.250
2022-11-27T05:05:32.055Z,19.850
2022-11-27T05:06:26.615Z,19.500
2022-11-27T05:07:32.800Z,20.100
2022-11-27T05:08:39.860Z,19.900
2022-11-27T05:09:23.452Z,19.000
2022-11-27T05:10:26.904Z,20.900
2022-11-27T05:11:42.860Z,21.350
2022-11-27T05:12:26.829Z,24.000
2022-11-27T05:13:23.092Z,22.100
2022-11-27T05:14:54.431Z,20.050
2022-11-27T05:15:32.459Z,20.500
2022-11-27T05:16:24.148Z,20.300
2022-11-27T05:17:25.339Z,21.800
2022-11-27T05:18:36.683Z,22.750
2022-11-27T05:19:32.370Z,20.300
2022-11-27T05:20:29.331Z,18.600
2022-11-27T05:21:32.995Z,21.100
2022-11-27T05:22:32.187Z,19.700
2022-11-27T05:23:24.536Z,22.000
2022-11-27T05:24:25.642Z,19.200
2022-11-27T05:25:32.841Z,19.050
2022-11-27T05:26:30.299Z,19.800
2022-11-27T05:27:25.746Z,21.200
2022-11-27T05:28:34.146Z,20.500
2022-11-27T05:29:28.983Z,20.500
2022-11-27T05:30:28.395Z,21.050
2022-11-27T05:31:21.098Z,23.550
2022-11-27T05:32:19.364Z,23.150
2022-11-27T05:33:29.430Z,26.500
2022-11-27T05:34:22.690Z,20.600
2022-11-27T05:35:26.131Z,23.900
2022-11-27T05:36:29.332Z,23.500
2022-11-27T05:37:27.559Z,22.800
2022-11-27T05:38:21.349Z,23.150
2022-11-27T05:39:24.867Z,21.700
2022-11-27T05:40:26.996Z,23.100
2022-11-27T05:41:24.802Z,21.600
2022-11-27T05:42:25.197Z,21.400
2022-11-27T05:43:28.950Z,23.400
2022-11-27T05:44:25.148Z,22.450
2022-11-27T05:45:20.790Z,21.500
2022-11-27T05:46:20.466Z,19.400
2022-11-27T05:47:22.955Z,21.300
2022-11-27T05:48:29.343Z,21.000
2022-11-27T05:49:30.852Z,21.500
2022-11-27T05:50:22.932Z,22.200
2022-11-27T05:51:26.441Z,22.650
2022-11-27T05:52:25.767Z,22.300
2022-11-27T05:53:34.866Z,24.550
2022-11-27T05:54:28.506Z,21.300
2022-11-27T05:55:22.865Z,22.900
2022-11-27T05:56:34.280Z,23.550
2022-11-27T05:57:26.627Z,20.100
2022-11-27T05:58:26.761Z,24.150
2022-11-27T05:59:21.024Z,23.000
2022-11-27T06:00:30.762Z,22.100
2022-11-27T06:01:29.440Z,22.000
2022-11-27T06:02:29.207Z,21.600
2022-11-27T06:03:22.199Z,20.050
2022-11-27T06:04:30.439Z,21.400
2022-11-27T06:05:26.551Z,20.800
2022-11-27T06:06:21.819Z,22.050
2022-11-27T06:07:30.725Z,21.050
2022-11-27T06:08:27.016Z,22.400
2022-11-27T06:09:24.442Z,20.750
2022-11-27T06:10:19.677Z,21.150
2022-11-27T06:11:30.127Z,22.300
2022-11-27T06:12:29.495Z,21.700
2022-11-27T06:13:22.186Z,21.550
2022-11-27T06:14:33.017Z,21.400
2022-11-27T06:15:26.830Z,23.400
2022-11-27T06:16:23.938Z,22.600
2022-11-27T06:17:26.239Z,25.750
2022-11-27T06:18:31.936Z,25.400
2022-11-27T06:19:28.675Z,23.400
2022-11-27T06:20:24.221Z,24.900
2022-11-27T06:21:21.788Z,22.800
2022-11-27T06:22:32.025Z,26.450
2022-11-27T06:23:22.856Z,24.450
2022-11-27T06:24:29.606Z,25.400
2022-11-27T06:25:24.646Z,22.300
2022-11-27T06:26:26.731Z,22.900
2022-11-27T06:27:20.580Z,24.200
2022-11-27T06:28:21.140Z,26.450
2022-11-27T06:29:33.735Z,24.200
2022-11-27T06:30:23.034Z,24.550
2022-11-27T06:31:23.226Z,26.000
2022-11-27T06:32:21.598Z,24.650
2022-11-27T06:33:29.451Z,25.050
2022-11-27T06:34:24.922Z,23.800
2022-11-27T06:35:29.001Z,21.100
2022-11-27T06:36:28.129Z,23.900
2022-11-27T06:37:25.427Z,22.700
2022-11-27T06:38:41.797Z,22.650
2022-11-27T06:39:22.334Z,23.500
2022-11-27T06:40:26.160Z,24.250
2022-11-27T06:41:20.795Z,23.450
2022-11-27T06:42:30.686Z,24.000
2022-11-27T06:43:22.346Z,23.300
2022-11-27T06:44:23.116Z,20.800
2022-11-27T06:45:36.249Z,22.650
2022-11-27T06:46:25.455Z,23.300
2022-11-27T06:47:27.738Z,21.500
2022-11-27T06:48:23.049Z,22.400
2022-11-27T06:49:36.151Z,22.800
2022-11-27T06:50:25.219Z,20.050
2022-11-27T06:51:23.113Z,21.850
2022-11-27T06:52:40.173Z,23.700
2022-11-27T06:53:28.664Z,24.200
2022-11-27T06:54:29.558Z,24.800
2022-11-27T06:55:26.751Z,24.600
2022-11-27T06:56:32.411Z,22.250
2022-11-27T06:57:22.964Z,23.000
2022-11-27T06:58:31.036Z,23.000
2022-11-27T06:59:26.212Z,23.100
2022-11-27T07:00:35.993Z,27.200
2022-11-27T07:01:25.355Z,21.300
2022-11-27T07:02:22.893Z,26.350
2022-11-27T07:03:23.058Z,24.950
2022-11-27T07:04:29.277Z,24.800
2022-11-27T07:05:31.452Z,20.450
2022-11-27T07:06:20.121Z,25.000
2022-11-27T07:07:30.079Z,27.800
2022-11-27T07:08:25.585Z,23.600
2022-11-27T07:09:23.794Z,22.950
2022-11-27T07:10:28.396Z,23.600
2022-11-27T07:11:31.071Z,25.200
2022-11-27T07:12:22.604Z,23.900
2022-11-27T07:13:23.469Z,22.300
2022-11-27T07:14:30.897Z,20.400
2022-11-27T07:15:25.498Z,20.800
2022-11-27T07:16:25.905Z,21.250
2022-11-27T07:17:31.981Z,22.900
2022-11-27T07:18:25.361Z,22.100
2022-11-27T07:19:22.518Z,22.600
2022-11-27T07:20:29.156Z,25.500
2022-11-27T07:21:22.642Z,25.550
2022-11-27T07:22:28.444Z,24.200
2022-11-27T07:23:24.435Z,21.550
2022-11-27T07:24:37.592Z,21.100
2022-11-27T07:25:27.408Z,21.700
2022-11-27T07:26:26.457Z,21.900
2022-11-27T07:27:35.179Z,23.900
2022-11-27T07:28:27.044Z,21.800
2022-11-27T07:29:24.522Z,21.950
2022-11-27T07:30:21.126Z,23.500
2022-11-27T07:31:39.876Z,23.050
2022-11-27T07:32:31.775Z,19.900
2022-11-27T07:33:25.422Z,20.200
2022-11-27T07:34:42.044Z,21.467
2022-11-27T07:35:29.485Z,20.800
2022-11-27T07:36:23.140Z,20.200
2022-11-27T07:37:21.999Z,22.050
2022-11-27T07:38:30.721Z,21.200
2022-11-27T07:40:00.329Z,22.550
2022-11-27T07:40:23.869Z,24.500
2022-11-27T07:41:21.407Z,21.900
2022-11-27T07:42:39.494Z,20.200
2022-11-27T07:43:29.389Z,23.650
2022-11-27T07:44:25.746Z,21.100
2022-11-27T07:45:30.925Z,18.600
2022-11-27T07:46:28.845Z,18.000
2022-11-27T07:47:22.888Z,19.350
2022-11-27T07:48:26.250Z,17.850
2022-11-27T07:49:29.145Z,19.400
2022-11-27T07:50:27.659Z,20.050
2022-11-27T07:51:22.895Z,21.300
2022-11-27T07:52:44.822Z,19.500
2022-11-27T07:53:31.473Z,17.750
2022-11-27T07:54:23.103Z,18.000
2022-11-27T07:55:21.396Z,18.800
2022-11-27T07:56:23.645Z,21.000
2022-11-27T07:57:26.040Z,20.900
2022-11-27T07:58:21.079Z,18.500
2022-11-27T07:59:22.870Z,18.700
2022-11-27T08:00:28.597Z,18.150
2022-11-27T08:01:29.189Z,18.600
2022-11-27T08:02:24.212Z,20.550
2022-11-27T08:03:31.898Z,20.450
2022-11-27T08:04:27.522Z,21.100
2022-11-27T08:05:25.016Z,19.550
2022-11-27T08:06:21.133Z,18.900
2022-11-27T08:08:27.915Z,19.250
2022-11-27T08:09:27.279Z,20.000
2022-11-27T08:10:31.214Z,20.700
2022-11-27T08:11:30.476Z,19.500
2022-11-27T08:12:23.664Z,21.200
2022-11-27T08:13:27.244Z,21.900
2022-11-27T08:14:20.619Z,22.800
2022-11-27T08:15:22.962Z,21.800
2022-11-27T08:16:39.576Z,21.050
2022-11-27T08:17:30.828Z,21.500
2022-11-27T08:18:30.454Z,20.300
2022-11-27T08:19:21.919Z,19.600
2022-11-27T08:20:25.567Z,22.850
2022-11-27T08:21:32.680Z,21.200
2022-11-27T08:22:24.760Z,21.300
2022-11-27T08:23:33.878Z,20.500
2022-11-27T08:24:25.287Z,20.500
2022-11-27T08:25:25.724Z,21.000
2022-11-27T08:26:21.380Z,20.800
2022-11-27T08:27:31.280Z,21.000
2022-11-27T08:28:28.883Z,19.450
2022-11-27T08:29:22.513Z,19.300
2022-11-27T08:30:37.913Z,21.200
2022-11-27T08:31:26.065Z,23.300
2022-11-27T08:32:27.113Z,21.050
2022-11-27T08:33:20.859Z,19.450
2022-11-27T08:34:23.513Z,20.750
2022-11-27T08:35:38.454Z,19.300
2022-11-27T08:36:29.143Z,19.850
2022-11-27T08:37:34.412Z,18.500
2022-11-27T08:38:29.163Z,19.500
2022-11-27T08:39:45.730Z,19.350
2022-11-27T08:40:20.718Z,19.700
2022-11-27T08:41:27.277Z,17.900
2022-11-27T08:42:23.735Z,18.700
2022-11-27T08:43:29.909Z,15.600
2022-11-27T08:44:23.937Z,15.750
2022-11-27T08:45:29.599Z,17.800
2022-11-27T08:46:25.113Z,19.200
2022-11-27T08:47:22.596Z,18.700
2022-11-27T08:48:33.882Z,19.500
2022-11-27T08:49:31.472Z,17.750
2022-11-27T08:50:26.298Z,19.900
2022-11-27T08:51:37.436Z,17.750
2022-11-27T08:52:20.559Z,17.500
2022-11-27T08:53:22.811Z,19.850
2022-11-27T08:54:25.724Z,18.700
2022-11-27T08:55:35.308Z,20.200
2022-11-27T08:56:30.489Z,20.300
2022-11-27T08:57:27.875Z,17.900
2022-11-27T08:58:37.940Z,19.000
2022-11-27T08:59:26.824Z,19.800
2022-11-27T09:00:28.096Z,20.300
2022-11-27T09:01:22.425Z,20.800
2022-11-27T09:02:37.803Z,18.700
2022-11-27T09:03:31.653Z,19.400
2022-11-27T09:04:28.810Z,19.500
2022-11-27T09:05:37.903Z,18.550
2022-11-27T09:06:32.909Z,18.850
2022-11-27T09:07:21.106Z,20.550
2022-11-27T09:08:36.360Z,20.500
2022-11-27T09:09:51.533Z,18.800
2022-11-27T09:10:30.776Z,22.200
2022-11-27T09:11:26.067Z,22.300
2022-11-27T09:12:27.316Z,22.200
2022-11-27T09:13:33.352Z,21.100
2022-11-27T09:14:27.755Z,20.200
2022-11-27T09:15:25.841Z,19.700
2022-11-27T09:16:35.402Z,20.400
2022-11-27T09:17:32.195Z,22.400
2022-11-27T09:18:23.467Z,20.500
2022-11-27T09:19:37.755Z,21.200
2022-11-27T09:20:20.888Z,21.200
2022-11-27T09:21:25.274Z,20.900
2022-11-27T09:22:24.782Z,22.650
2022-11-27T09:23:32.417Z,20.000
2022-11-27T09:24:28.336Z,21.900
2022-11-27T09:25:23.655Z,20.850
2022-11-27T09:26:40.666Z,18.900
2022-11-27T09:27:24.290Z,20.200
2022-11-27T09:28:31.099Z,19.100
2022-11-27T09:29:27.662Z,20.200
2022-11-27T09:30:34.682Z,20.750
2022-11-27T09:31:29.274Z,20.800
2022-11-27T09:32:27.814Z,21.850
2022-11-27T09:33:37.736Z,21.800
2022-11-27T09:34:37.231Z,20.400
2022-11-27T09:35:28.227Z,19.550
2022-11-27T09:36:28.173Z,19.500
2022-11-27T09:37:28.152Z,19.750
2022-11-27T09:38:32.125Z,21.900
2022-11-27T09:39:24.806Z,22.700
2022-11-27T09:40:22.004Z,20.150
2022-11-27T09:41:29.433Z,20.000
2022-11-27T09:42:23.630Z,23.350
2022-11-27T09:43:23.875Z,21.400
2022-11-27T09:44:26.892Z,19.000
2022-11-27T09:45:27.812Z,22.100
2022-11-27T09:46:27.213Z,20.950
2022-11-27T09:47:22.785Z,21.700
2022-11-27T09:48:35.562Z,23.100
2022-11-27T09:49:27.214Z,21.100
2022-11-27T09:50:31.034Z,23.350
2022-11-27T09:51:35.203Z,23.700
2022-11-27T09:52:26.426Z,22.700
2022-11-27T09:53:41.483Z,21.750
2022-11-27T09:54:39.659Z,22.500
2022-11-27T09:55:45.990Z,20.150
2022-11-27T09:56:27.540Z,20.800
2022-11-27T09:57:31.528Z,20.450
2022-11-27T09:58:21.211Z,23.100
2022-11-27T09:59:29.169Z,21.300
2022-11-27T10:00:23.453Z,21.550
2022-11-27T10:01:38.507Z,21.250
2022-11-27T10:02:32.985Z,20.900
2022-11-27T10:03:24.993Z,20.650
2022-11-27T10:04:24.546Z,18.000
2022-11-27T10:05:28.414Z,19.500
2022-11-27T10:06:36.258Z,20.000
2022-11-27T10:07:26.054Z,19.500
2022-11-27T10:08:35.555Z,19.500
2022-11-27T10:09:28.824Z,18.000
2022-11-27T10:10:22.661Z,18.900
2022-11-27T10:11:21.500Z,19.750
2022-11-27T10:12:35.981Z,19.800
2022-11-27T10:13:23.570Z,21.700
2022-11-27T10:14:36.280Z,19.850
2022-11-27T10:15:27.046Z,16.300
2022-11-27T10:16:24.307Z,18.500
2022-11-27T10:17:42.990Z,17.200
2022-11-27T10:18:48.897Z,18.900
2022-11-27T10:19:31.270Z,17.700
2022-11-27T10:20:25.991Z,18.600
2022-11-27T10:21:32.517Z,18.100
2022-11-27T10:22:27.268Z,16.400
2022-11-27T10:23:25.120Z,18.150
2022-11-27T10:24:56.670Z,19.800
2022-11-27T10:25:48.837Z,20.800
2022-11-27T10:26:41.873Z,17.900
2022-11-27T10:27:20.311Z,17.600
2022-11-27T10:28:24.715Z,15.900
2022-11-27T10:29:48.885Z,17.350
2022-11-27T10:30:27.163Z,16.800
2022-11-27T10:32:00.215Z,17.900
2022-11-27T10:32:55.539Z,15.300
2022-11-27T10:33:30.041Z,15.500
2022-11-27T10:34:27.949Z,19.400
2022-11-27T10:35:31.969Z,17.100
2022-11-27T10:36:21.589Z,17.350
2022-11-27T10:37:28.841Z,16.600
2022-11-27T10:38:27.603Z,17.200
2022-11-27T10:39:37.060Z,16.100
2022-11-27T10:40:48.546Z,15.300
2022-11-27T10:41:48.750Z,14.300
2022-11-27T10:42:33.239Z,15.200
2022-11-27T10:43:26.364Z,15.050
2022-11-27T10:44:26.023Z,15.900
2022-11-27T10:45:26.853Z,15.700
2022-11-27T10:46:56.152Z,14.950
2022-11-27T10:47:45.417Z,15.300
2022-11-27T10:48:29.800Z,15.500
2022-11-27T10:49:36.188Z,14.000
2022-11-27T10:50:32.824Z,14.400
2022-11-27T10:51:23.400Z,14.100
2022-11-27T10:52:27.270Z,15.400
2022-11-27T10:53:20.865Z,15.050
2022-11-27T10:54:48.991Z,15.000
2022-11-27T10:55:27.681Z,15.000
2022-11-27T10:56:38.100Z,15.850
2022-11-27T10:57:40.224Z,15.100
2022-11-27T10:58:30.740Z,14.800
2022-11-27T10:59:33.216Z,14.100
2022-11-27T11:00:24.917Z,13.900
2022-11-27T11:01:29.444Z,13.000
2022-11-27T11:02:45.216Z,12.700
2022-11-27T11:03:27.212Z,13.000
2022-11-27T11:04:40.339Z,12.650
2022-11-27T11:06:18.593Z,13.000
2022-11-27T11:06:28.196Z,13.700
2022-11-27T11:07:31.735Z,13.200
2022-11-27T11:08:22.731Z,14.800
2022-11-27T11:09:39.575Z,15.900
2022-11-27T11:10:38.877Z,13.650
2022-11-27T11:11:46.363Z,13.800
2022-11-27T11:12:32.066Z,15.600
2022-11-27T11:13:29.282Z,15.200
2022-11-27T11:14:25.318Z,14.500
2022-11-27T11:15:30.607Z,13.700
2022-11-27T11:16:45.451Z,14.750
2022-11-27T11:17:29.002Z,15.100
2022-11-27T11:18:30.339Z,14.650
2022-11-27T11:19:43.126Z,14.750
2022-11-27T11:20:36.111Z,12.800
2022-11-27T11:21:30.317Z,16.000
2022-11-27T11:22:34.372Z,13.700
2022-11-27T11:23:27.831Z,14.250
2022-11-27T11:24:32.727Z,14.500
2022-11-27T11:26:00.886Z,15.950
2022-11-27T11:26:48.141Z,14.000
2022-11-27T11:27:38.604Z,17.200
2022-11-27T11:28:28.748Z,18.100
2022-11-27T11:29:27.750Z,17.300
2022-11-27T11:30:30.758Z,15.400
2022-11-27T11:31:25.622Z,15.200
2022-11-27T11:32:23.035Z,12.800
2022-11-27T11:33:51.554Z,12.500
2022-11-27T11:34:42.652Z,13.700
2022-11-27T11:35:36.943Z,13.250
2022-11-27T11:36:26.292Z,12.500
2022-11-27T11:37:35.794Z,13.450
2022-11-27T11:38:35.368Z,14.100
2022-11-27T11:39:24.993Z,13.050
2022-11-27T11:40:24.230Z,10.300
2022-11-27T11:41:42.851Z,10.400
2022-11-27T11:42:37.661Z,13.200
2022-11-27T11:43:30.524Z,12.500
2022-11-27T11:44:28.311Z,11.750
2022-11-27T11:45:32.636Z,9.700
2022-11-27T11:46:21.835Z,11.100
2022-11-27T11:47:45.280Z,12.350
2022-11-27T11:48:53.127Z,11.000
2022-11-27T11:49:39.827Z,11.000
2022-11-27T11:50:25.806Z,11.500
2022-11-27T11:51:27.880Z,11.350
2022-11-27T11:52:26.929Z,11.200
2022-11-27T11:53:25.526Z,11.000
2022-11-27T11:55:17.963Z,9.750
2022-11-27T11:55:55.604Z,11.700
2022-11-27T11:56:41.229Z,10.500
2022-11-27T11:57:34.899Z,11.200
2022-11-27T11:58:31.829Z,9.600
2022-11-27T11:59:45.374Z,9.150
2022-11-27T12:00:39.980Z,10.300
2022-11-27T12:01:27.280Z,10.100
2022-11-27T12:03:05.632Z,11.400
2022-11-27T12:03:36.037Z,11.500
2022-11-27T12:04:27.817Z,10.750
2022-11-27T12:05:36.628Z,8.900
2022-11-27T12:06:51.504Z,10.200
2022-11-27T12:07:22.624Z,10.900
2022-11-27T12:08:39.425Z,8.600
2022-11-27T12:09:52.804Z,10.200
2022-11-27T12:10:55.609Z,8.600
2022-11-27T12:11:36.520Z,9.600
2022-11-27T12:12:51.464Z,9.700
2022-11-27T12:13:33.520Z,8.200
2022-11-27T12:14:41.345Z,7.950
2022-11-27T12:15:27.144Z,9.500
2022-11-27T12:16:25.898Z,9.700
2022-11-27T12:17:54.664Z,8.050
2022-11-27T12:18:42.008Z,8.500
2022-11-27T12:19:22.729Z,7.900
2022-11-27T12:20:39.704Z,9.250
2022-11-27T12:21:32.558Z,9.200
2022-11-27T12:22:26.060Z,8.300
2022-11-27T12:23:29.339Z,9.000
2022-11-27T12:24:22.441Z,9.400
2022-11-27T12:25:30.675Z,8.600
2022-11-27T12:26:24.297Z,8.250
2022-11-27T12:27:52.549Z,9.000
2022-11-27T12:28:40.519Z,8.450
2022-11-27T12:29:45.811Z,8.400
2022-11-27T12:30:26.936Z,10.200
2022-11-27T12:31:29.679Z,7.200
2022-11-27T12:32:45.174Z,8.450
2022-11-27T12:33:37.650Z,8.500
2022-11-27T12:34:49.885Z,8.150
2022-11-27T12:35:44.752Z,8.400
2022-11-27T12:36:28.822Z,8.000
2022-11-27T12:37:31.078Z,8.900
2022-11-27T12:38:28.844Z,8.900
2022-11-27T12:39:32.494Z,9.850
2022-11-27T12:40:32.898Z,8.400
2022-11-27T12:42:06.827Z,9.900
2022-11-27T12:42:29.128Z,9.100
2022-11-27T12:43:52.628Z,10.500
2022-11-27T12:44:26.567Z,9.100
2022-11-27T12:45:23.447Z,9.900
2022-11-27T12:46:26.335Z,10.000
2022-11-27T12:47:40.101Z,11.100
2022-11-27T12:48:22.426Z,9.200
2022-11-27T12:49:58.039Z,10.700
2022-11-27T12:50:42.721Z,10.000
2022-11-27T12:51:30.359Z,10.500
2022-11-27T12:52:26.536Z,9.100
2022-11-27T12:53:36.910Z,9.550
2022-11-27T12:54:25.339Z,10.000
2022-11-27T12:55:29.188Z,8.250
2022-11-27T12:56:56.980Z,8.600
2022-11-27T12:57:45.248Z,9.400
2022-11-27T12:58:37.621Z,8.800
2022-11-27T12:59:30.839Z,9.100
2022-11-27T13:00:23.966Z,9.100
2022-11-27T13:01:28.702Z,9.100
2022-11-27T13:02:30.377Z,8.250
2022-11-27T13:04:13.822Z,8.150
2022-11-27T13:04:20.836Z,9.400
2022-11-27T13:05:35.092Z,8.500
2022-11-27T13:06:24.073Z,8.400
2022-11-27T13:07:34.482Z,11.400
2022-11-27T13:08:20.411Z,7.800
2022-11-27T13:09:22.684Z,7.300
2022-11-27T13:10:24.635Z,7.100
2022-11-27T13:11:54.199Z,5.450
2022-11-27T13:12:39.572Z,7.700
2022-11-27T13:13:27.114Z,6.300
2022-11-27T13:14:37.239Z,6.600
2022-11-27T13:15:27.569Z,6.300
2022-11-27T13:16:26.739Z,4.000
2022-11-27T13:17:21.406Z,5.400
2022-11-27T13:19:14.875Z,6.950
2022-11-27T13:19:41.364Z,6.900
2022-11-27T13:20:29.598Z,4.800
2022-11-27T13:21:23.875Z,5.700
2022-11-27T13:22:34.716Z,4.700
2022-11-27T13:23:24.076Z,4.200
2022-11-27T13:24:28.051Z,3.900
2022-11-27T13:26:04.903Z,4.500
2022-11-27T13:26:44.860Z,5.000
2022-11-27T13:27:32.315Z,5.700
2022-11-27T13:28:42.072Z,5.400
2022-11-27T13:29:39.139Z,3.300
2022-11-27T13:30:31.950Z,5.300
2022-11-27T13:31:41.326Z,4.300
2022-11-27T13:32:25.392Z,5.100
2022-11-27T13:33:35.946Z,4.300
2022-11-27T13:34:35.698Z,4.600
2022-11-27T13:35:35.861Z,4.100
2022-11-27T13:36:40.870Z,4.150
2022-11-27T13:37:30.492Z,4.700
2022-11-27T13:38:29.672Z,3.600
2022-11-27T13:39:26.898Z,3.700
2022-11-27T13:40:55.794Z,3.300
2022-11-27T13:41:38.843Z,4.100
2022-11-27T13:42:34.881Z,3.600
2022-11-27T13:43:43.095Z,3.900
2022-11-27T13:44:30.589Z,4.200
2022-11-27T13:45:29.746Z,5.100